Flight Track Log - Related Links

Times and Time Zones

All times are in EDT time to prevent confusion due to time zone crossing. See the N2214D flight status page for this flight to view local times or setup timezone preferences in your user account.

Time Position Orientation Groundspeed Altitude Reporting Facility
EDT Latitude Longitude Course Direction KTS MPH feet Rate Location/Type
Sun 10:56:14 AM 38.0875 -84.6222 275° West 118 136 3,200  Level Indianapolis Center
Sun 10:57:16 AM 38.0875 -84.6714 270° West 117 135 4,000 726 Climbing Indianapolis Center
Sun 10:58:18 AM 38.0900 -84.7089 275° West 113 130 4,700 677 Climbing Indianapolis Center
Sun 10:59:20 AM 38.0947 -84.7442 280° West 109 125 5,400 677 Climbing Indianapolis Center
Sun 11:00:00 AM 38.0643 -84.8503 280° West  Level FlightAware Approximate
Sun 11:00:22 AM 38.0983 -84.7836 277° West 109 125 6,100  Level Indianapolis Center
Sun 11:01:00 AM 38.0684 -84.8922 275° West  Level FlightAware Approximate
Sun 11:01:36 AM 38.1050 -84.8339 280° West 188 216 6,200  Level Indianapolis Center
Sun 11:02:38 AM 38.1083 -84.8681 277° West 120 138 6,100 -48 Descending Indianapolis Center
Sun 11:03:40 AM 38.1147 -84.9133 280° West 116 133 6,100 48 Level Indianapolis Center
Sun 11:04:42 AM 38.1189 -84.9528 278° West 115 132 6,200 48 Climbing Indianapolis Center
Sun 11:05:44 AM 38.1231 -84.9953 277° West 117 135 6,200 -48 Level Indianapolis Center
Sun 11:06:46 AM 38.1278 -85.0369 278° West 118 136 6,100 -48 Descending Indianapolis Center
Sun 11:07:48 AM 38.1311 -85.0789 276° West 119 137 6,100  Level Indianapolis Center
Sun 11:08:50 AM 38.1378 -85.1258 280° West 118 136 6,100  Level Indianapolis Center
Sun 11:09:52 AM 38.1425 -85.1661 278° West 116 133 6,100  Level Indianapolis Center
Sun 11:10:54 AM 38.1436 -85.2147 272° West 120 138 6,100  Level Indianapolis Center
Sun 11:11:56 AM 38.1483 -85.2564 278° West 120 138 6,100  Level Indianapolis Center
Sun 11:12:58 AM 38.1547 -85.2972 281° West 118 136 6,100  Level Indianapolis Center
Sun 11:14:00 AM 38.1581 -85.3383 276° West 118 136 6,100  Level Indianapolis Center
Sun 11:15:02 AM 38.1608 -85.3800 275° West 118 136 6,100  Level Indianapolis Center
Sun 11:16:03 AM 38.1681 -85.4242 282° West 118 136 6,100 -49 Level Indianapolis Center
Sun 11:17:05 AM 38.1725 -85.4633 278° West 119 137 6,000  Descending Indianapolis Center
Sun 11:18:07 AM 38.1747 -85.5081 274° West 119 137 6,100 48 Climbing Indianapolis Center
Sun 11:19:09 AM 38.1794 -85.5553 277° West 119 137 6,100 -48 Level Indianapolis Center
Sun 11:20:11 AM 38.1847 -85.5972 279° West 120 138 6,000 -48 Descending Indianapolis Center
Sun 11:21:13 AM 38.1911 -85.6389 281° West 120 138 6,000 48 Level Indianapolis Center
Sun 11:22:15 AM 38.1956 -85.6811 278° West 121 139 6,100 48 Climbing Indianapolis Center
Sun 11:23:17 AM 38.1978 -85.7233 274° West 120 138 6,100  Level Indianapolis Center
Sun 11:24:19 AM 38.2047 -85.7650 282° West 120 138 6,100  Level Indianapolis Center
Sun 11:25:20 AM 38.2103 -85.8081 279° West 121 139 6,100  Level Indianapolis Center
Sun 11:26:22 AM 38.2150 -85.8606 277° West 123 142 6,100  Level Indianapolis Center
Sun 11:27:24 AM 38.2178 -85.9044 275° West 124 143 6,100 -48 Level Indianapolis Center
Sun 11:28:26 AM 38.2228 -85.9472 278° West 123 142 6,000 -48 Descending Indianapolis Center
Sun 11:29:28 AM 38.2256 -85.9903 275° West 123 142 6,000 48 Level Indianapolis Center
Sun 11:30:30 AM 38.2319 -86.0328 281° West 122 140 6,100 48 Climbing Indianapolis Center
Sun 11:31:32 AM 38.2358 -86.0744 277° West 121 139 6,100  Level Indianapolis Center
Sun 11:32:34 AM 38.2400 -86.1167 277° West 120 138 6,100  Level Indianapolis Center
Sun 11:33:35 AM 38.2450 -86.1594 278° West 120 138 6,100 -49 Level Indianapolis Center
Sun 11:34:37 AM 38.2500 -86.2108 277° West 121 139 6,000  Descending Indianapolis Center
Sun 11:35:39 AM 38.2542 -86.2542 277° West 122 140 6,100 48 Climbing Indianapolis Center
Sun 11:36:41 AM 38.2586 -86.2969 278° West 122 140 6,100  Level Indianapolis Center
Sun 11:37:43 AM 38.2622 -86.3394 276° West 121 139 6,100 48 Level Indianapolis Center
Sun 11:38:45 AM 38.2653 -86.3819 275° West 121 139 6,200  Climbing Indianapolis Center
Sun 11:39:47 AM 38.2694 -86.4258 277° West 122 140 6,100 -97 Descending Indianapolis Center
Sun 11:40:49 AM 38.2744 -86.4683 279° West 122 140 6,000  Descending Indianapolis Center
Sun 11:41:50 AM 38.2786 -86.5128 277° West 124 143 6,100  Climbing Indianapolis Center
Sun 11:42:52 AM 38.2839 -86.5653 277° West 124 143 6,000  Descending Indianapolis Center
Sun 11:43:54 AM 38.2894 -86.6075 280° West 123 142 6,100 48 Climbing Indianapolis Center
Sun 11:44:56 AM 38.2942 -86.6508 278° West 123 142 6,100 -48 Level Indianapolis Center
Sun 11:45:58 AM 38.2989 -86.6944 278° West 123 142 6,000 -48 Descending Indianapolis Center
Sun 11:47:00 AM 38.3025 -86.7381 276° West 123 142 6,000 48 Level Indianapolis Center
Sun 11:48:02 AM 38.3061 -86.7814 276° West 124 143 6,100  Climbing Indianapolis Center
Sun 11:49:04 AM 38.3103 -86.8242 277° West 122 140 6,000 -48 Descending Indianapolis Center
Sun 11:50:06 AM 38.3156 -86.8769 277° West 124 143 6,000 48 Level Indianapolis Center
Sun 11:51:08 AM 38.3172 -86.9214 273° West 125 144 6,100  Climbing Indianapolis Center
Sun 11:52:10 AM 38.3211 -86.9656 276° West 126 145 6,000 -48 Descending Indianapolis Center
Sun 11:53:12 AM 38.3253 -87.0094 277° West 125 144 6,000  Level Indianapolis Center
Sun 11:54:14 AM 38.3294 -87.0519 277° West 124 143 6,000  Level Indianapolis Center
Sun 11:55:15 AM 38.3342 -87.1019 277° West 124 143 6,000  Level Indianapolis Center
Sun 11:56:17 AM 38.3367 -87.1442 274° West 122 140 6,000  Level Indianapolis Center
Sun 11:57:19 AM 38.3414 -87.1892 278° West 124 143 6,000  Level Indianapolis Center
Sun 11:58:21 AM 38.3453 -87.2331 276° West 125 144 6,000 48 Level Indianapolis Center
Sun 11:59:23 AM 38.3492 -87.2761 277° West 124 143 6,100 48 Climbing Indianapolis Center
Sun 12:00:25 PM 38.3533 -87.3189 277° West 123 142 6,100 -48 Level Indianapolis Center
Sun 12:01:27 PM 38.3567 -87.3622 276° West 122 140 6,000 -48 Descending Indianapolis Center
Sun 12:02:29 PM 38.3617 -87.4139 277° West 122 140 6,000  Level Indianapolis Center
Sun 12:03:31 PM 38.3656 -87.4581 276° West 123 142 6,000 48 Level Indianapolis Center
Sun 12:04:33 PM 38.3692 -87.5008 276° West 123 142 6,100 48 Climbing Indianapolis Center
Sun 12:05:35 PM 38.3736 -87.5425 278° West 121 139 6,100 -48 Level Indianapolis Center
Sun 12:06:37 PM 38.3767 -87.5864 275° West 121 139 6,000  Descending Indianapolis Center
Sun 12:07:39 PM 38.3803 -87.6294 276° West 122 140 6,100  Climbing Indianapolis Center
Sun 12:08:41 PM 38.3844 -87.6719 277° West 122 140 6,000  Descending Indianapolis Center
Sun 12:09:43 PM 38.3894 -87.7247 277° West 123 142 6,100 48 Climbing Indianapolis Center
Sun 12:10:45 PM 38.3925 -87.7669 275° West 121 139 6,100  Level Indianapolis Center
Sun 12:11:47 PM 38.3961 -87.8089 276° West 120 138 6,100  Level Indianapolis Center
Sun 12:12:49 PM 38.3997 -87.8511 276° West 120 138 6,100 -48 Level Indianapolis Center
Sun 12:13:51 PM 38.4022 -87.8950 274° West 121 139 6,000 -48 Descending Indianapolis Center
Sun 12:14:53 PM 38.4061 -87.9381 277° West 122 140 6,000  Level Indianapolis Center
Sun 12:15:55 PM 38.4100 -87.9806 277° West 122 140 6,000  Level Indianapolis Center
Sun 12:16:57 PM 38.4150 -88.0328 277° West 122 140 6,000 48 Level Indianapolis Center
Sun 12:17:59 PM 38.4186 -88.0778 276° West 124 143 6,100  Climbing Indianapolis Center
Sun 12:19:01 PM 38.4236 -88.1214 278° West 125 144 6,000 -48 Descending Indianapolis Center
Sun 12:20:03 PM 38.4269 -88.1667 275° West 126 145 6,000 48 Level Indianapolis Center
Sun 12:21:05 PM 38.4303 -88.2100 276° West 125 144 6,100  Climbing Indianapolis Center
Sun 12:22:07 PM 38.4328 -88.2544 274° West 125 144 6,000 -98 Descending Indianapolis Center
Sun 12:23:08 PM 38.4364 -88.2994 276° West 126 145 5,900 49 Descending Indianapolis Center
Sun 12:24:10 PM 38.4403 -88.3433 276° West 125 144 6,100 48 Climbing Indianapolis Center
Sun 12:25:12 PM 38.4447 -88.3958 276° West 124 143 6,000 -48 Descending Indianapolis Center
Sun 12:26:14 PM 38.4467 -88.4400 273° West 125 144 6,000  Level Indianapolis Center
Sun 12:27:16 PM 38.4511 -88.4856 277° West 126 145 6,000  Level Indianapolis Center
Sun 12:28:18 PM 38.4556 -88.5294 277° West 126 145 6,000  Level Indianapolis Center
Sun 12:29:20 PM 38.4597 -88.5736 277° West 125 144 6,000  Level Indianapolis Center
Sun 12:30:49 PM 38.4644 -88.6456 275° West 125 144 6,000  Level Kansas City Center
Sun 12:31:51 PM 38.4658 -88.6850 273° West 124 143 6,000  Level Kansas City Center
Sun 12:32:53 PM 38.4686 -88.7300 275° West 125 144 6,000  Level Kansas City Center
Sun 12:33:55 PM 38.4692 -88.7797 271° West 126 145 6,000  Level Kansas City Center
Sun 12:34:57 PM 38.4678 -88.8281 268° West 127 146 6,000  Level Kansas City Center
Sun 12:35:59 PM 38.4831 -88.8631 299° West 124 143 6,000  Level Kansas City Center
Sun 12:37:01 PM 38.4822 -88.9075 269° West 124 143 6,000  Level Kansas City Center
Sun 12:38:03 PM 38.4869 -88.9606 277° West 124 143 6,000  Level Kansas City Center
Sun 12:39:05 PM 38.4906 -89.0000 277° West 127 146 6,000 48 Level Kansas City Center
Sun 12:40:07 PM 38.4936 -89.0519 274° West 124 143 6,100  Climbing Kansas City Center
Sun 12:41:09 PM 38.4961 -89.0964 274° West 124 143 6,000 -242 Descending Kansas City Center
Sun 12:42:11 PM 38.4989 -89.1450 274° West 127 146 5,600 -387 Descending Kansas City Center
Sun 12:43:13 PM 38.5039 -89.1911 278° West 134 154 5,200 -290 Descending Kansas City Center
Sun 12:44:15 PM 38.5092 -89.2500 277° West 142 163 5,000 -97 Descending Kansas City Center
Sun 12:45:17 PM 38.5128 -89.2989 275° West 141 162 5,000 48 Level Kansas City Center
Sun 12:46:19 PM 38.5156 -89.3450 274° West 131 151 5,100  Climbing Kansas City Center
Sun 12:47:21 PM 38.5189 -89.3964 275° West 133 153 5,000 -97 Descending Kansas City Center
Sun 12:48:23 PM 38.5233 -89.4439 277° West 134 154 4,900 -242 Descending Kansas City Center
Sun 12:49:25 PM 38.5269 -89.4997 275° West 146 168 4,500 -387 Descending Kansas City Center
Sun 12:50:27 PM 38.5314 -89.5539 276° West 154 177 4,100 -242 Descending Kansas City Center
Sun 12:51:29 PM 38.5344 -89.6097 274° West 148 170 4,000 -48 Descending Kansas City Center
Sun 12:52:31 PM 38.5378 -89.6594 275° West 142 163 4,000 48 Level Kansas City Center
Sun 12:53:33 PM 38.5408 -89.7022 275° West 142 163 4,100 48 Climbing Kansas City Center
Sun 12:54:35 PM 38.5464 -89.7608 277° West 140 161 4,100  Level Kansas City Center
Sun 12:55:37 PM 38.5492 -89.8117 274° West 142 163 4,100 -242 Level Kansas City Center
Sun 12:56:39 PM 38.5514 -89.8631 273° West 143 165 3,600 -532 Descending Kansas City Center
Sun 12:57:41 PM 38.5542 -89.9128 274° West 142 163 3,000 -435 Descending Kansas City Center
Sun 12:58:43 PM 38.5556 -89.9617 272° West 140 161 2,700 -194 Descending Kansas City Center
Sun 12:59:45 PM 38.5556 -90.0044 270° West 132 152 2,600 -290 Descending Kansas City Center
Sun 01:00:47 PM 38.5547 -90.0569 269° West 125 144 2,100 -532 Descending Kansas City Center
Sun 01:01:49 PM 38.5594 -90.0986 278° West 122 140 1,500 -435 Descending Kansas City Center
Sun 01:02:51 PM 38.5744 -90.1325 300° West 116 133 1,200 -145 Descending Kansas City Center
Sun 01:03:53 PM 38.5897 -90.1622 303° West 107 123 1,200 -145 Level Kansas City Center
Sun 01:04:55 PM 38.5817 -90.1792 239° Southwest 87 100 900 -339 Descending Kansas City Center
Sun 01:05:57 PM 38.5681 -90.1553 126° Southeast 78 90 500 -387 Descending Kansas City Center

Login

Don't have an account? Register now (free) for customized features, flight alerts, and more!